Terminal Aerodrome Forecast
Issued by NWS

Home | Current Version | Previous Version | Text Only | Print | Product List | Glossary On
Versions: 1 2 3 4 5 6 7 8 9 10 11 12 13 14 15
000
FTUS46 KSTO 280500
TAFMHR
TAF
KMHR 280532Z 2806/2906 VRB03KT P6SM BKN200
      TEMPO 2808/2812 4SM BR
     FM281200 VRB03KT 4SM BR BKN200
      TEMPO 2812/2816 2SM BR
     FM281900 31004KT P6SM FEW250
      AMD NOT SKED=

USA.gov is the U.S. government's official web portal to all federal, state and local government web resources and services.